createdAt,value
2019-04-03T00:00:41.050Z,49.56
2019-04-03T00:01:41.226Z,46.39
2019-04-03T00:02:41.403Z,47.36
2019-04-03T00:03:41.579Z,49.07
2019-04-03T00:04:41.753Z,46.88
2019-04-03T00:06:42.111Z,65.19
2019-04-03T00:07:42.281Z,56.15
2019-04-03T00:08:42.455Z,46.39
2019-04-03T00:09:42.638Z,57.37
2019-04-03T00:10:42.810Z,51.27
2019-04-03T00:11:43.024Z,45.41
2019-04-03T00:12:43.166Z,49.07
2019-04-03T00:13:43.339Z,45.41
2019-04-03T00:14:43.514Z,46.63
2019-04-03T00:15:44.637Z,55.18
2019-04-03T00:16:45.530Z,60.55
2019-04-03T00:17:45.990Z,45.90
2019-04-03T00:18:46.820Z,45.17
2019-04-03T00:19:45.833Z,46.88
2019-04-03T00:20:44.576Z,45.41
2019-04-03T00:21:44.750Z,53.22
2019-04-03T00:22:46.615Z,47.12
2019-04-03T00:23:45.112Z,51.27
2019-04-03T00:24:45.281Z,64.94
2019-04-03T00:25:45.460Z,45.90
2019-04-03T00:26:45.640Z,44.92
2019-04-03T00:27:45.815Z,44.43
2019-04-03T00:28:45.997Z,50.29
2019-04-03T00:29:46.229Z,45.41
2019-04-03T00:30:46.350Z,56.88
2019-04-03T00:31:46.528Z,45.17
2019-04-03T00:32:46.708Z,43.46
2019-04-03T00:33:46.881Z,47.12
2019-04-03T00:34:47.059Z,47.12
2019-04-03T00:35:47.235Z,50.78
2019-04-03T00:36:47.414Z,50.29
2019-04-03T00:37:47.587Z,44.43
2019-04-03T00:38:47.763Z,45.41
2019-04-03T00:39:47.940Z,50.29
2019-04-03T00:40:48.175Z,46.39
2019-04-03T00:41:48.292Z,44.92
2019-04-03T00:42:48.469Z,49.07
2019-04-03T00:43:48.652Z,49.56
2019-04-03T00:44:48.837Z,45.65
2019-04-03T00:45:49.142Z,53.22
2019-04-03T00:46:49.180Z,44.92
2019-04-03T00:47:49.361Z,55.91
2019-04-03T00:48:49.543Z,44.92
2019-04-03T00:49:49.724Z,59.33
2019-04-03T00:50:49.886Z,46.63
2019-04-03T00:51:50.062Z,46.88
2019-04-03T00:52:50.244Z,43.70
2019-04-03T00:53:50.414Z,48.10
2019-04-03T00:54:50.590Z,47.61
2019-04-03T00:55:50.767Z,50.05
2019-04-03T00:56:50.949Z,48.34
2019-04-03T00:57:51.121Z,47.85
2019-04-03T00:58:51.295Z,43.21
2019-04-03T00:59:51.471Z,43.46
2019-04-03T01:00:51.662Z,51.51
2019-04-03T01:01:51.835Z,46.14
2019-04-03T01:02:52.001Z,45.90
2019-04-03T01:03:52.180Z,60.30
2019-04-03T01:04:52.353Z,56.15
2019-04-03T01:05:52.528Z,46.14
2019-04-03T01:06:52.709Z,56.15
2019-04-03T01:07:53.065Z,45.17
2019-04-03T01:08:53.058Z,47.12
2019-04-03T01:09:53.237Z,42.72
2019-04-03T01:10:53.414Z,49.07
2019-04-03T01:11:53.590Z,42.24
2019-04-03T01:12:53.770Z,42.48
2019-04-03T01:13:53.939Z,42.97
2019-04-03T01:14:54.130Z,43.70
2019-04-03T01:15:54.446Z,56.64
2019-04-03T01:16:54.467Z,51.03
2019-04-03T01:17:54.640Z,46.14
2019-04-03T01:18:54.819Z,47.85
2019-04-03T01:19:54.999Z,46.14
2019-04-03T01:20:55.169Z,47.85
2019-04-03T01:21:55.346Z,43.70
2019-04-03T01:22:55.521Z,45.17
2019-04-03T01:23:55.834Z,52.00
2019-04-03T01:24:55.879Z,57.13
2019-04-03T01:25:56.053Z,45.90
2019-04-03T01:26:56.228Z,54.20
2019-04-03T01:27:56.408Z,45.65
2019-04-03T01:28:56.580Z,56.15
2019-04-03T01:29:56.753Z,48.34
2019-04-03T01:30:56.929Z,44.92
2019-04-03T01:31:57.111Z,48.34
2019-04-03T01:32:57.283Z,48.58
2019-04-03T01:33:57.455Z,52.49
2019-04-03T01:34:57.630Z,50.29
2019-04-03T01:35:57.805Z,56.88
2019-04-03T01:36:58.027Z,45.17
2019-04-03T01:37:58.158Z,53.22
2019-04-03T01:38:58.335Z,64.70
2019-04-03T01:39:58.541Z,50.05
2019-04-03T01:40:58.686Z,50.78
2019-04-03T01:41:58.866Z,50.05
2019-04-03T01:42:59.135Z,43.21
2019-04-03T01:43:59.215Z,45.90
2019-04-03T01:44:59.416Z,56.15
2019-04-03T01:45:59.565Z,45.17
2019-04-03T01:46:59.769Z,44.43
2019-04-03T01:47:59.919Z,43.95
2019-04-03T01:49:00.093Z,45.41
2019-04-03T01:50:00.346Z,43.95
2019-04-03T01:51:00.442Z,45.17
2019-04-03T01:52:00.998Z,50.78
2019-04-03T01:53:02.437Z,46.39
2019-04-03T01:54:02.796Z,46.14
2019-04-03T01:55:03.342Z,45.65
2019-04-03T01:56:02.696Z,44.43
2019-04-03T01:57:01.500Z,49.80
2019-04-03T01:58:01.750Z,47.85
2019-04-03T01:59:01.980Z,44.68
2019-04-03T02:00:02.019Z,55.18
2019-04-03T02:01:02.191Z,52.98
2019-04-03T02:02:02.370Z,60.79
2019-04-03T02:03:02.547Z,44.19
2019-04-03T02:04:02.724Z,44.19
2019-04-03T02:05:03.021Z,43.21
2019-04-03T02:06:03.094Z,42.48
2019-04-03T02:07:03.251Z,43.95
2019-04-03T02:08:04.119Z,43.21
2019-04-03T02:09:03.670Z,45.90
2019-04-03T02:10:03.857Z,48.10
2019-04-03T02:11:04.023Z,56.15
2019-04-03T02:12:04.243Z,44.92
2019-04-03T02:13:04.379Z,43.46
2019-04-03T02:14:04.555Z,46.39
2019-04-03T02:15:04.733Z,44.92
2019-04-03T02:16:05.623Z,62.50
2019-04-03T02:17:05.049Z,45.17
2019-04-03T02:18:05.240Z,46.88
2019-04-03T02:19:05.401Z,43.46
2019-04-03T02:20:05.580Z,45.41
2019-04-03T02:21:05.757Z,42.97
2019-04-03T02:22:05.933Z,48.83
2019-04-03T02:23:06.106Z,46.39
2019-04-03T02:24:06.282Z,56.40
2019-04-03T02:25:06.458Z,45.17
2019-04-03T02:26:06.647Z,43.46
2019-04-03T02:27:06.812Z,45.90
2019-04-03T02:28:06.986Z,47.61
2019-04-03T02:29:08.716Z,49.07
2019-04-03T02:30:07.395Z,50.78
2019-04-03T02:31:07.527Z,54.44
2019-04-03T02:32:07.691Z,49.32
2019-04-03T02:33:07.917Z,47.36
2019-04-03T02:34:08.045Z,48.83
2019-04-03T02:35:08.470Z,47.85
2019-04-03T02:36:10.903Z,53.47
2019-04-03T02:37:08.721Z,54.93
2019-04-03T02:38:08.748Z,58.84
2019-04-03T02:39:09.633Z,49.56
2019-04-03T02:40:09.059Z,56.88
2019-04-03T02:41:09.232Z,57.37
2019-04-03T02:42:09.942Z,61.28
2019-04-03T02:43:13.457Z,55.66
2019-04-03T02:44:09.760Z,50.05
2019-04-03T02:45:09.940Z,50.05
2019-04-03T02:46:10.253Z,62.01
2019-04-03T02:47:10.431Z,57.37
2019-04-03T02:48:10.651Z,57.86
2019-04-03T02:49:11.129Z,66.41
2019-04-03T02:50:13.942Z,52.00
2019-04-03T02:51:10.988Z,47.36
2019-04-03T02:52:11.165Z,47.61
2019-04-03T02:53:11.411Z,64.21
2019-04-03T02:54:11.793Z,62.01
2019-04-03T02:55:11.704Z,47.61
2019-04-03T02:56:13.271Z,48.83
2019-04-03T02:57:12.047Z,45.90
2019-04-03T02:58:12.232Z,46.39
2019-04-03T02:59:12.402Z,61.52
2019-04-03T03:00:12.703Z,46.39
2019-04-03T03:01:12.739Z,48.10
2019-04-03T03:02:13.610Z,52.73
2019-04-03T03:03:16.111Z,54.20
2019-04-03T03:04:13.271Z,59.57
2019-04-03T03:05:13.479Z,47.61
2019-04-03T03:06:13.623Z,45.90
2019-04-03T03:07:13.817Z,50.05
2019-04-03T03:08:14.671Z,47.36
2019-04-03T03:09:14.528Z,45.90
2019-04-03T03:10:18.629Z,49.80
2019-04-03T03:11:14.537Z,51.27
2019-04-03T03:12:14.717Z,56.64
2019-04-03T03:13:14.888Z,51.03
2019-04-03T03:14:15.214Z,54.69
2019-04-03T03:15:15.497Z,46.88
2019-04-03T03:16:18.145Z,46.88
2019-04-03T03:17:15.596Z,46.88
2019-04-03T03:18:16.024Z,49.07
2019-04-03T03:19:15.960Z,47.61
2019-04-03T03:20:16.124Z,47.36
2019-04-03T03:21:16.298Z,56.88
2019-04-03T03:22:18.061Z,47.36
2019-04-03T03:23:16.670Z,49.32
2019-04-03T03:24:16.826Z,48.34
2019-04-03T03:25:17.224Z,48.10
2019-04-03T03:26:17.535Z,50.78
2019-04-03T03:27:17.357Z,51.51
2019-04-03T03:28:17.529Z,53.71
2019-04-03T03:29:23.755Z,52.25
2019-04-03T03:30:37.141Z,63.96
2019-04-03T03:31:18.953Z,64.45
2019-04-03T03:32:21.790Z,70.80
2019-04-03T03:33:29.955Z,68.36
2019-04-03T03:34:43.820Z,68.60
2019-04-03T03:35:27.983Z,69.34
2019-04-03T03:36:23.465Z,47.36
2019-04-03T03:37:19.149Z,47.12
2019-04-03T03:38:19.286Z,46.63
2019-04-03T03:39:19.472Z,48.34
2019-04-03T03:40:19.642Z,53.71
2019-04-03T03:41:23.265Z,47.85
2019-04-03T03:42:19.999Z,48.83
2019-04-03T03:43:20.169Z,52.73
2019-04-03T03:44:20.449Z,56.64
2019-04-03T03:45:21.426Z,52.49
2019-04-03T03:46:20.700Z,49.32
2019-04-03T03:47:20.875Z,52.49
2019-04-03T03:48:21.049Z,48.58
2019-04-03T03:49:21.221Z,50.54
2019-04-03T03:50:23.885Z,52.00
2019-04-03T03:51:22.139Z,66.16
2019-04-03T03:52:21.749Z,49.80
2019-04-03T03:53:22.292Z,50.54
2019-04-03T03:54:22.100Z,48.83
2019-04-03T03:55:24.319Z,53.47
2019-04-03T03:56:22.936Z,49.32
2019-04-03T03:57:22.629Z,48.58
2019-04-03T03:58:22.811Z,48.83
2019-04-03T03:59:23.140Z,55.91
2019-04-03T04:00:24.400Z,66.89
2019-04-03T04:01:23.341Z,53.22
2019-04-03T04:02:23.652Z,49.07
2019-04-03T04:03:23.683Z,55.91
2019-04-03T04:04:23.986Z,56.40
2019-04-03T04:05:24.047Z,59.81
2019-04-03T04:06:28.246Z,59.33
2019-04-03T04:08:24.551Z,68.36
2019-04-03T04:09:24.724Z,49.07
2019-04-03T04:10:26.290Z,48.83
2019-04-03T04:11:25.075Z,59.33
2019-04-03T04:12:25.322Z,48.83
2019-04-03T04:13:26.164Z,50.54
2019-04-03T04:14:25.876Z,49.07
2019-04-03T04:15:28.873Z,66.16
2019-04-03T04:16:25.935Z,73.24
2019-04-03T04:17:26.109Z,55.66
2019-04-03T04:18:26.287Z,51.76
2019-04-03T04:19:30.597Z,68.85
2019-04-03T04:20:26.701Z,74.95
2019-04-03T04:21:26.976Z,73.97
2019-04-03T04:22:28.109Z,75.93
2019-04-03T04:23:27.298Z,72.51
2019-04-03T04:24:27.972Z,75.68
2019-04-03T04:25:29.758Z,72.27
2019-04-03T04:26:27.698Z,77.15
2019-04-03T04:27:28.034Z,75.44
2019-04-03T04:28:28.051Z,61.77
2019-04-03T04:29:28.352Z,62.26
2019-04-03T04:30:28.420Z,67.14
2019-04-03T04:31:28.585Z,54.69
2019-04-03T04:32:29.008Z,47.85
2019-04-03T04:33:28.996Z,57.37
2019-04-03T04:34:29.324Z,51.51
2019-04-03T04:35:29.573Z,60.79
2019-04-03T04:36:29.517Z,63.48
2019-04-03T04:37:29.694Z,58.35
2019-04-03T04:38:29.868Z,71.53
2019-04-03T04:39:30.045Z,51.03
2019-04-03T04:40:31.279Z,49.80
2019-04-03T04:41:32.236Z,51.03
2019-04-03T04:42:30.570Z,52.49
2019-04-03T04:43:30.746Z,52.00
2019-04-03T04:44:30.922Z,56.15
2019-04-03T04:45:33.316Z,75.20
2019-04-03T04:46:31.273Z,58.84
2019-04-03T04:47:31.449Z,60.79
2019-04-03T04:48:31.626Z,60.30
2019-04-03T04:49:32.215Z,61.77
2019-04-03T04:50:31.975Z,63.23
2019-04-03T04:51:32.150Z,66.41
2019-04-03T04:52:32.336Z,63.96
2019-04-03T04:53:33.167Z,60.55
2019-04-03T04:54:32.760Z,67.63
2019-04-03T04:55:34.452Z,60.30
2019-04-03T04:56:33.299Z,58.35
2019-04-03T04:57:33.315Z,60.55
2019-04-03T04:58:33.419Z,74.46
2019-04-03T04:59:35.893Z,62.99
2019-04-03T05:00:33.936Z,67.63
2019-04-03T05:01:33.945Z,78.13
2019-04-03T05:02:34.123Z,78.61
2019-04-03T05:03:34.297Z,79.83
2019-04-03T05:04:34.548Z,84.23
2019-04-03T05:05:34.654Z,78.61
2019-04-03T05:06:34.833Z,78.61
2019-04-03T05:07:35.012Z,64.21
2019-04-03T05:08:35.185Z,67.14
2019-04-03T05:09:35.530Z,81.30
2019-04-03T05:10:36.934Z,76.42
2019-04-03T05:11:38.265Z,62.01
2019-04-03T05:12:35.887Z,61.77
2019-04-03T05:13:36.057Z,67.14
2019-04-03T05:14:36.233Z,67.63
2019-04-03T05:15:36.409Z,72.02
2019-04-03T05:16:36.791Z,74.22
2019-04-03T05:17:37.673Z,62.26
2019-04-03T05:18:36.973Z,67.14
2019-04-03T05:19:37.675Z,60.55
2019-04-03T05:20:37.358Z,66.89
2019-04-03T05:21:37.612Z,67.14
2019-04-03T05:22:37.702Z,85.69
2019-04-03T05:23:37.872Z,86.67
2019-04-03T05:24:38.044Z,74.22
2019-04-03T05:25:38.219Z,74.22
2019-04-03T05:26:38.395Z,70.31
2019-04-03T05:27:38.570Z,70.80
2019-04-03T05:28:38.753Z,71.29
2019-04-03T05:29:38.922Z,68.12
2019-04-03T05:30:39.099Z,71.29
2019-04-03T05:31:39.532Z,70.56
2019-04-03T05:32:41.166Z,73.00
2019-04-03T05:33:41.564Z,63.96
2019-04-03T05:34:39.801Z,72.02
2019-04-03T05:35:40.021Z,75.44
2019-04-03T05:36:40.152Z,72.75
2019-04-03T05:37:40.365Z,73.24
2019-04-03T05:38:40.502Z,63.72
2019-04-03T05:39:40.677Z,60.55
2019-04-03T05:40:40.858Z,63.23
2019-04-03T05:41:41.134Z,62.74
2019-04-03T05:42:41.207Z,66.89
2019-04-03T05:43:41.437Z,69.82
2019-04-03T05:44:41.562Z,60.55
2019-04-03T05:45:42.305Z,72.75
2019-04-03T05:46:42.107Z,74.22
2019-04-03T05:47:42.101Z,75.93
2019-04-03T05:48:42.279Z,76.42
2019-04-03T05:49:42.449Z,75.20
2019-04-03T05:50:42.623Z,76.66
2019-04-03T05:52:42.975Z,68.60
2019-04-03T05:53:43.170Z,63.96
2019-04-03T05:55:43.496Z,65.43
2019-04-03T05:56:43.679Z,65.67
2019-04-03T05:57:45.990Z,58.35
2019-04-03T05:58:54.475Z,56.88
2019-04-03T05:59:44.597Z,63.96
2019-04-03T06:00:44.372Z,66.89
2019-04-03T06:01:46.722Z,58.35
2019-04-03T06:02:44.725Z,58.59
2019-04-03T06:03:45.823Z,63.96
2019-04-03T06:04:45.134Z,72.75
2019-04-03T06:05:45.522Z,70.80
2019-04-03T06:06:46.839Z,67.14
2019-04-03T06:07:47.015Z,63.96
2019-04-03T06:08:45.783Z,66.89
2019-04-03T06:09:45.954Z,64.21
2019-04-03T06:10:46.168Z,61.77
2019-04-03T06:11:46.303Z,65.19
2019-04-03T06:12:46.736Z,62.26
2019-04-03T06:13:48.035Z,67.63
2019-04-03T06:14:49.608Z,78.13
2019-04-03T06:15:47.005Z,72.27
2019-04-03T06:16:47.244Z,71.53
2019-04-03T06:17:50.175Z,69.09
2019-04-03T06:18:48.315Z,66.65
2019-04-03T06:19:47.754Z,62.26
2019-04-03T06:20:48.160Z,64.45
2019-04-03T06:21:48.089Z,57.86
2019-04-03T06:22:49.848Z,61.28
2019-04-03T06:23:48.569Z,59.33
2019-04-03T06:24:48.614Z,62.01
2019-04-03T06:25:48.790Z,63.72
2019-04-03T06:26:48.962Z,60.55
2019-04-03T06:27:49.335Z,64.94
2019-04-03T06:28:49.572Z,59.81
2019-04-03T06:29:51.048Z,65.92
2019-04-03T06:30:49.669Z,68.12
2019-04-03T06:31:49.851Z,64.94
2019-04-03T06:32:50.129Z,59.57
2019-04-03T06:33:51.627Z,64.70
2019-04-03T06:34:50.381Z,68.60
2019-04-03T06:35:50.549Z,63.72
2019-04-03T06:36:51.157Z,63.23
2019-04-03T06:37:52.538Z,62.01
2019-04-03T06:38:51.068Z,67.38
2019-04-03T06:39:51.256Z,62.01
2019-04-03T06:40:51.418Z,61.77
2019-04-03T06:41:51.589Z,63.96
2019-04-03T06:42:51.918Z,65.67
2019-04-03T06:43:54.047Z,59.81
2019-04-03T06:44:53.845Z,65.19
2019-04-03T06:45:52.289Z,67.63
2019-04-03T06:46:54.003Z,58.84
2019-04-03T06:47:52.650Z,65.19
2019-04-03T06:48:55.199Z,64.21
2019-04-03T06:49:53.128Z,68.12
2019-04-03T06:50:53.165Z,69.34
2019-04-03T06:51:53.343Z,64.21
2019-04-03T06:52:53.734Z,59.81
2019-04-03T06:53:53.692Z,62.74
2019-04-03T06:54:53.870Z,75.44
2019-04-03T06:55:54.273Z,61.04
2019-04-03T06:56:54.241Z,63.72
2019-04-03T06:57:54.394Z,68.36
2019-04-03T06:58:54.570Z,65.43
2019-04-03T06:59:54.747Z,64.45
2019-04-03T07:00:55.267Z,68.12
2019-04-03T07:01:55.096Z,64.94
2019-04-03T07:02:55.344Z,74.22
2019-04-03T07:03:55.467Z,71.29
2019-04-03T07:04:55.637Z,64.45
2019-04-03T07:05:55.797Z,70.31
2019-04-03T07:06:56.671Z,77.39
2019-04-03T07:07:56.304Z,72.02
2019-04-03T07:08:56.339Z,75.44
2019-04-03T07:09:56.499Z,69.34
2019-04-03T07:10:56.749Z,66.41
2019-04-03T07:11:57.578Z,64.94
2019-04-03T07:12:57.022Z,67.14
2019-04-03T07:13:57.208Z,63.96
2019-04-03T07:14:57.674Z,65.92
2019-04-03T07:15:57.548Z,64.21
2019-04-03T07:17:00.285Z,64.45
2019-04-03T07:18:00.961Z,64.45
2019-04-03T07:18:58.073Z,61.52
2019-04-03T07:20:02.697Z,64.70
2019-04-03T07:20:58.450Z,75.93
2019-04-03T07:21:58.902Z,72.51
2019-04-03T07:22:59.402Z,73.24
2019-04-03T07:24:00.643Z,65.43
2019-04-03T07:24:59.274Z,60.06
2019-04-03T07:25:59.318Z,72.75
2019-04-03T07:26:59.491Z,70.07
2019-04-03T07:27:59.662Z,77.39
2019-04-03T07:28:59.843Z,67.87
2019-04-03T07:30:00.013Z,62.50
2019-04-03T07:31:00.189Z,69.09
2019-04-03T07:32:00.362Z,65.19
2019-04-03T07:33:00.540Z,61.04
2019-04-03T07:34:03.249Z,62.01
2019-04-03T07:35:01.138Z,58.84
2019-04-03T07:36:01.076Z,62.01
2019-04-03T07:37:01.245Z,58.84
2019-04-03T07:38:01.422Z,59.33
2019-04-03T07:39:01.593Z,68.85
2019-04-03T07:40:01.770Z,62.50
2019-04-03T07:41:01.945Z,62.26
2019-04-03T07:42:02.121Z,58.11
2019-04-03T07:43:02.298Z,62.50
2019-04-03T07:44:02.485Z,67.87
2019-04-03T07:45:03.116Z,70.07
2019-04-03T07:46:03.389Z,72.27
2019-04-03T07:47:04.033Z,65.67
2019-04-03T07:48:05.981Z,62.99
2019-04-03T07:49:03.483Z,65.43
2019-04-03T07:50:03.534Z,63.72
2019-04-03T07:51:03.705Z,67.38
2019-04-03T07:52:03.873Z,64.70
2019-04-03T07:53:04.044Z,71.04
2019-04-03T07:54:04.927Z,60.55
2019-04-03T07:55:04.394Z,61.52
2019-04-03T07:56:04.571Z,68.85
2019-04-03T07:57:04.747Z,64.94
2019-04-03T07:58:04.962Z,75.68
2019-04-03T07:59:05.108Z,58.11
2019-04-03T08:00:07.053Z,70.31
2019-04-03T08:01:05.780Z,75.20
2019-04-03T08:02:05.627Z,67.87
2019-04-03T08:03:06.122Z,71.04
2019-04-03T08:04:05.984Z,71.29
2019-04-03T08:05:06.151Z,71.29
2019-04-03T08:06:06.329Z,66.16
2019-04-03T08:07:06.511Z,76.17
2019-04-03T08:08:06.864Z,61.77
2019-04-03T08:09:09.315Z,63.72
2019-04-03T08:10:07.032Z,64.45
2019-04-03T08:11:07.206Z,63.72
2019-04-03T08:12:07.383Z,59.57
2019-04-03T08:13:07.734Z,59.81
2019-04-03T08:14:09.065Z,65.43
2019-04-03T08:15:08.063Z,70.56
2019-04-03T08:16:08.284Z,63.48
2019-04-03T08:17:08.263Z,68.36
2019-04-03T08:18:08.441Z,60.30
2019-04-03T08:19:08.813Z,66.16
2019-04-03T08:20:08.808Z,79.83
2019-04-03T08:21:08.955Z,73.97
2019-04-03T08:22:09.387Z,70.56
2019-04-03T08:23:09.563Z,65.92
2019-04-03T08:24:09.606Z,69.34
2019-04-03T08:25:12.153Z,80.81
2019-04-03T08:26:11.798Z,69.58
2019-04-03T08:27:10.083Z,63.48
2019-04-03T08:28:10.252Z,60.79
2019-04-03T08:29:10.429Z,63.23
2019-04-03T08:30:10.949Z,64.94
2019-04-03T08:31:11.842Z,61.52
2019-04-03T08:32:10.949Z,73.00
2019-04-03T08:33:17.490Z,64.21
2019-04-03T08:34:16.649Z,64.94
2019-04-03T08:35:20.858Z,71.04
2019-04-03T08:36:23.283Z,72.51
2019-04-03T08:37:11.826Z,68.85
2019-04-03T08:38:13.471Z,65.92
2019-04-03T08:39:15.164Z,61.77
2019-04-03T08:40:12.351Z,61.52
2019-04-03T08:41:12.528Z,66.89
2019-04-03T08:42:12.741Z,63.96
2019-04-03T08:43:14.142Z,63.23
2019-04-03T08:44:13.042Z,64.94
2019-04-03T08:45:13.224Z,65.43
2019-04-03T08:46:14.226Z,65.43
2019-04-03T08:47:14.312Z,77.15
2019-04-03T08:48:14.988Z,66.65
2019-04-03T08:49:14.143Z,67.38
2019-04-03T08:50:14.056Z,62.26
2019-04-03T08:51:14.351Z,72.27
2019-04-03T08:52:15.035Z,79.10
2019-04-03T08:53:14.577Z,77.15
2019-04-03T08:54:14.753Z,66.16
2019-04-03T08:55:14.931Z,62.50
2019-04-03T08:56:16.879Z,58.59
2019-04-03T08:57:15.291Z,60.79
2019-04-03T08:58:15.467Z,61.28
2019-04-03T08:59:15.951Z,62.26
2019-04-03T09:00:15.822Z,68.36
2019-04-03T09:01:15.997Z,66.16
2019-04-03T09:02:16.184Z,61.04
2019-04-03T09:03:16.354Z,62.26
2019-04-03T09:04:17.732Z,70.07
2019-04-03T09:05:17.041Z,61.28
2019-04-03T09:06:16.946Z,73.00
2019-04-03T09:07:17.145Z,63.96
2019-04-03T09:08:17.248Z,61.77
2019-04-03T09:09:17.424Z,66.65
2019-04-03T09:10:17.599Z,61.77
2019-04-03T09:11:17.777Z,65.19
2019-04-03T09:12:18.191Z,65.19
2019-04-03T09:13:22.403Z,63.23
2019-04-03T09:14:20.100Z,63.48
2019-04-03T09:15:18.488Z,66.41
2019-04-03T09:16:18.662Z,58.59
2019-04-03T09:17:18.882Z,65.92
2019-04-03T09:18:19.009Z,63.96
2019-04-03T09:19:19.185Z,62.01
2019-04-03T09:20:19.362Z,63.48
2019-04-03T09:21:19.557Z,67.63
2019-04-03T09:22:21.841Z,72.75
2019-04-03T09:23:19.881Z,67.14
2019-04-03T09:24:20.058Z,60.79
2019-04-03T09:25:20.233Z,62.26
2019-04-03T09:26:20.412Z,62.26
2019-04-03T09:27:20.828Z,65.19
2019-04-03T09:28:20.759Z,66.89
2019-04-03T09:29:21.180Z,60.06
2019-04-03T09:30:21.115Z,65.19
2019-04-03T09:31:21.300Z,61.52
2019-04-03T09:32:22.759Z,62.26
2019-04-03T09:33:24.582Z,63.96
2019-04-03T09:34:21.890Z,61.28
2019-04-03T09:35:22.167Z,66.65
2019-04-03T09:36:22.175Z,59.33
2019-04-03T09:37:22.940Z,66.65
2019-04-03T09:38:22.480Z,68.12
2019-04-03T09:39:22.943Z,59.81
2019-04-03T09:40:22.788Z,66.41
2019-04-03T09:41:22.973Z,68.12
2019-04-03T09:42:23.143Z,63.48
2019-04-03T09:43:23.338Z,59.81
2019-04-03T09:44:25.469Z,65.43
2019-04-03T09:45:23.674Z,65.92
2019-04-03T09:46:23.850Z,60.06
2019-04-03T09:47:25.017Z,67.63
2019-04-03T09:48:24.175Z,68.12
2019-04-03T09:49:24.465Z,60.06
2019-04-03T09:50:24.525Z,61.28
2019-04-03T09:51:24.702Z,59.57
2019-04-03T09:52:37.371Z,65.19
2019-04-03T09:53:26.338Z,62.74
2019-04-03T09:54:27.320Z,63.48
2019-04-03T09:55:25.412Z,70.80
2019-04-03T09:56:25.596Z,72.27
2019-04-03T09:57:25.764Z,76.66
2019-04-03T09:58:26.268Z,60.06
2019-04-03T09:59:26.414Z,59.81
2019-04-03T10:00:26.308Z,70.07
2019-04-03T10:01:26.473Z,82.76
2019-04-03T10:02:26.750Z,84.72
2019-04-03T10:03:27.049Z,84.23
2019-04-03T10:04:27.040Z,82.28
2019-04-03T10:05:28.962Z,83.01
2019-04-03T10:06:30.494Z,83.74
2019-04-03T10:07:27.961Z,66.16
2019-04-03T10:08:27.713Z,64.21
2019-04-03T10:09:27.900Z,66.89
2019-04-03T10:10:28.133Z,61.28
2019-04-03T10:11:28.248Z,66.16
2019-04-03T10:12:28.422Z,62.26
2019-04-03T10:13:28.598Z,58.59
2019-04-03T10:14:29.074Z,73.24
2019-04-03T10:15:31.529Z,67.87
2019-04-03T10:16:29.179Z,59.08
2019-04-03T10:17:29.361Z,62.01
2019-04-03T10:18:29.531Z,61.28
2019-04-03T10:19:29.700Z,63.23
2019-04-03T10:20:29.881Z,65.92
2019-04-03T10:21:32.560Z,60.55
2019-04-03T10:22:30.575Z,58.11
2019-04-03T10:23:30.419Z,71.78
2019-04-03T10:24:31.061Z,68.60
2019-04-03T10:25:30.776Z,64.94
2019-04-03T10:26:31.837Z,62.74
2019-04-03T10:27:31.367Z,57.86
2019-04-03T10:28:31.315Z,72.51
2019-04-03T10:29:31.491Z,59.57
2019-04-03T10:30:31.800Z,71.29
2019-04-03T10:31:31.842Z,60.79
2019-04-03T10:32:32.302Z,68.60
2019-04-03T10:33:32.540Z,68.12
2019-04-03T10:34:35.726Z,62.26
2019-04-03T10:35:32.834Z,60.55
2019-04-03T10:36:32.813Z,61.28
2019-04-03T10:37:32.935Z,66.65
2019-04-03T10:38:33.098Z,61.28
2019-04-03T10:40:34.691Z,58.11
2019-04-03T10:41:34.760Z,67.14
2019-04-03T10:42:37.224Z,65.92
2019-04-03T10:43:42.412Z,69.58
2019-04-03T10:44:34.257Z,57.62
2019-04-03T10:45:34.390Z,70.31
2019-04-03T10:46:35.491Z,66.16
2019-04-03T10:47:42.077Z,66.16
2019-04-03T10:48:34.947Z,58.59
2019-04-03T10:49:35.765Z,60.06
2019-04-03T10:50:37.921Z,60.79
2019-04-03T10:51:35.491Z,62.99
2019-04-03T10:52:35.667Z,62.74
2019-04-03T10:53:35.853Z,60.30
2019-04-03T10:54:38.136Z,62.01
2019-04-03T10:55:36.203Z,61.04
2019-04-03T10:56:36.378Z,71.04
2019-04-03T10:57:36.554Z,62.01
2019-04-03T10:58:38.110Z,73.73
2019-04-03T10:59:36.973Z,73.49
2019-04-03T11:00:37.101Z,73.00
2019-04-03T11:01:37.273Z,63.96
2019-04-03T11:02:37.613Z,63.48
2019-04-03T11:03:37.617Z,65.19
2019-04-03T11:04:40.889Z,75.68
2019-04-03T11:05:38.291Z,75.44
2019-04-03T11:06:38.140Z,77.39
2019-04-03T11:07:38.321Z,67.14
2019-04-03T11:08:38.497Z,64.94
2019-04-03T11:09:39.041Z,63.72
2019-04-03T11:10:38.850Z,60.55
2019-04-03T11:11:42.504Z,67.14
2019-04-03T11:12:39.189Z,62.26
2019-04-03T11:13:39.363Z,70.31
2019-04-03T11:14:39.982Z,66.16
2019-04-03T11:15:39.731Z,65.43
2019-04-03T11:16:40.125Z,62.50
2019-04-03T11:17:40.785Z,70.07
2019-04-03T11:18:40.427Z,59.33
2019-04-03T11:19:41.214Z,60.55
2019-04-03T11:20:41.430Z,68.12
2019-04-03T11:21:43.341Z,69.09
2019-04-03T11:22:42.740Z,81.30
2019-04-03T11:23:44.873Z,69.34
2019-04-03T11:24:42.236Z,67.38
2019-04-03T11:25:42.231Z,62.50
2019-04-03T11:26:41.873Z,61.77
2019-04-03T11:27:44.667Z,64.70
2019-04-03T11:28:42.049Z,57.13
2019-04-03T11:29:42.907Z,66.65
2019-04-03T11:30:42.402Z,72.02
2019-04-03T11:31:43.318Z,61.04
2019-04-03T11:32:42.804Z,62.74
2019-04-03T11:33:45.589Z,63.72
2019-04-03T11:34:43.514Z,67.87
2019-04-03T11:35:46.828Z,67.14
2019-04-03T11:36:47.228Z,61.52
2019-04-03T11:37:43.794Z,61.28
2019-04-03T11:38:43.942Z,65.19
2019-04-03T11:39:46.238Z,59.81
2019-04-03T11:40:53.793Z,60.06
2019-04-03T11:41:44.565Z,62.01
2019-04-03T11:42:44.648Z,69.34
2019-04-03T11:43:44.840Z,66.65
2019-04-03T11:44:45.945Z,59.81
2019-04-03T11:45:45.267Z,69.58
2019-04-03T11:46:46.684Z,59.57
2019-04-03T11:47:46.399Z,61.28
2019-04-03T11:48:46.056Z,58.35
2019-04-03T11:49:46.984Z,69.34
2019-04-03T11:50:46.762Z,58.59
2019-04-03T11:51:46.535Z,61.28
2019-04-03T11:52:46.598Z,62.74
2019-04-03T11:53:46.847Z,64.45
2019-04-03T11:54:47.116Z,61.28
2019-04-03T11:55:47.800Z,64.70
2019-04-03T11:56:47.210Z,61.28
2019-04-03T11:57:49.286Z,63.96
2019-04-03T11:58:47.572Z,75.93
2019-04-03T11:59:47.920Z,63.72
2019-04-03T12:00:48.122Z,69.82
2019-04-03T12:01:48.034Z,64.45
2019-04-03T12:02:48.283Z,89.11
2019-04-03T12:03:50.644Z,63.48
2019-04-03T12:04:48.691Z,62.01
2019-04-03T12:05:48.785Z,63.72
2019-04-03T12:06:51.349Z,62.01
2019-04-03T12:07:49.104Z,66.41
2019-04-03T12:08:50.299Z,62.50
2019-04-03T12:09:49.456Z,67.38
2019-04-03T12:10:49.671Z,65.67
2019-04-03T12:11:50.173Z,66.41
2019-04-03T12:12:50.247Z,60.79
2019-04-03T12:13:50.386Z,63.96
2019-04-03T12:14:50.360Z,63.72
2019-04-03T12:15:53.538Z,68.60
2019-04-03T12:16:50.771Z,68.12
2019-04-03T12:17:51.075Z,63.96
2019-04-03T12:18:51.067Z,63.72
2019-04-03T12:19:51.245Z,62.50
2019-04-03T12:20:51.422Z,61.28
2019-04-03T12:21:52.237Z,65.19
2019-04-03T12:22:54.011Z,60.06
2019-04-03T12:23:51.968Z,66.89
2019-04-03T12:24:52.134Z,66.89
2019-04-03T12:25:52.303Z,67.63
2019-04-03T12:26:55.759Z,67.87
2019-04-03T12:27:52.657Z,64.45
2019-04-03T12:28:52.843Z,60.55
2019-04-03T12:29:54.510Z,59.81
2019-04-03T12:30:53.190Z,71.29
2019-04-03T12:31:53.726Z,61.28
2019-04-03T12:32:53.550Z,60.79
2019-04-03T12:33:59.036Z,61.52
2019-04-03T12:34:54.291Z,61.77
2019-04-03T12:35:54.078Z,64.70
2019-04-03T12:36:54.255Z,71.29
2019-04-03T12:37:54.930Z,62.99
2019-04-03T12:38:57.440Z,60.55
2019-04-03T12:42:35.769Z,62.26
2019-04-03T12:43:35.476Z,67.14
2019-04-03T12:44:35.667Z,65.92
2019-04-03T12:45:35.865Z,65.67
2019-04-03T12:46:36.003Z,62.50
2019-04-03T12:47:36.253Z,65.92
2019-04-03T12:48:36.364Z,67.63
2019-04-03T12:49:36.848Z,61.52
2019-04-03T12:50:36.933Z,67.63
2019-04-03T12:51:36.919Z,67.87
2019-04-03T12:52:37.087Z,62.01
2019-04-03T12:53:37.255Z,65.67
2019-04-03T12:54:37.636Z,82.76
2019-04-03T12:55:37.622Z,59.33
2019-04-03T12:56:38.199Z,56.88
2019-04-03T12:57:39.242Z,57.86
2019-04-03T12:58:38.574Z,65.19
2019-04-03T12:59:39.960Z,62.01
2019-04-03T13:00:38.537Z,72.27
2019-04-03T13:01:38.945Z,58.84
2019-04-03T13:02:39.030Z,60.79